sensor_id;sensor_type;location;lat;lon;timestamp;pressure;altitude;pressure_sealevel;temperature;humidity
58955;BME280;45815;52.334;5.024;2022-10-13T00:00:41;101904.88;;;11.18;100.00
58955;BME280;45815;52.334;5.024;2022-10-13T00:03:07;101890.63;;;11.12;100.00
58955;BME280;45815;52.334;5.024;2022-10-13T00:05:33;101897.06;;;11.20;100.00
58955;BME280;45815;52.334;5.024;2022-10-13T00:07:59;101897.94;;;11.20;100.00
58955;BME280;45815;52.334;5.024;2022-10-13T00:10:28;101910.13;;;11.18;100.00
58955;BME280;45815;52.334;5.024;2022-10-13T00:12:54;101902.31;;;11.20;100.00
58955;BME280;45815;52.334;5.024;2022-10-13T00:15:21;101899.75;;;11.22;100.00
58955;BME280;45815;52.334;5.024;2022-10-13T00:17:46;101892.69;;;11.20;100.00
58955;BME280;45815;52.334;5.024;2022-10-13T00:20:12;101906.78;;;11.23;100.00
58955;BME280;45815;52.334;5.024;2022-10-13T00:22:37;101896.25;;;11.23;100.00
58955;BME280;45815;52.334;5.024;2022-10-13T00:25:03;101887.66;;;11.27;100.00
58955;BME280;45815;52.334;5.024;2022-10-13T00:27:29;101870.78;;;11.20;100.00
58955;BME280;45815;52.334;5.024;2022-10-13T00:29:54;101875.34;;;11.26;100.00
58955;BME280;45815;52.334;5.024;2022-10-13T00:32:19;101880.56;;;11.24;100.00
58955;BME280;45815;52.334;5.024;2022-10-13T00:34:45;101879.63;;;11.22;100.00
58955;BME280;45815;52.334;5.024;2022-10-13T00:37:10;101879.69;;;11.25;100.00
58955;BME280;45815;52.334;5.024;2022-10-13T00:39:36;101879.69;;;11.25;100.00
58955;BME280;45815;52.334;5.024;2022-10-13T00:42:02;101881.28;;;11.20;100.00
58955;BME280;45815;52.334;5.024;2022-10-13T00:44:57;101893.47;;;11.18;100.00
58955;BME280;45815;52.334;5.024;2022-10-13T00:47:25;101887.53;;;11.24;100.00
58955;BME280;45815;52.334;5.024;2022-10-13T00:49:51;101885.84;;;11.26;100.00
58955;BME280;45815;52.334;5.024;2022-10-13T00:52:19;101884.06;;;11.25;100.00
58955;BME280;45815;52.334;5.024;2022-10-13T00:54:45;101886.75;;;11.26;100.00
58955;BME280;45815;52.334;5.024;2022-10-13T00:57:12;101900.78;;;11.27;100.00
58955;BME280;45815;52.334;5.024;2022-10-13T00:59:38;101899.03;;;11.27;100.00
58955;BME280;45815;52.334;5.024;2022-10-13T01:02:04;101898.34;;;11.33;100.00
58955;BME280;45815;52.334;5.024;2022-10-13T01:04:33;101899.25;;;11.33;100.00
58955;BME280;45815;52.334;5.024;2022-10-13T01:07:00;101893.69;;;11.24;100.00
58955;BME280;45815;52.334;5.024;2022-10-13T01:09:25;101906.19;;;11.31;100.00
58955;BME280;45815;52.334;5.024;2022-10-13T01:14:25;101898.47;;;11.36;100.00
58955;BME280;45815;52.334;5.024;2022-10-13T01:30:20;101882.78;;;11.39;100.00
58955;BME280;45815;52.334;5.024;2022-10-13T01:33:09;101883.88;;;11.46;100.00
58955;BME280;45815;52.334;5.024;2022-10-13T01:46:51;101896.28;;;11.50;100.00
58955;BME280;45815;52.334;5.024;2022-10-13T01:49:20;101883.16;;;11.51;100.00
58955;BME280;45815;52.334;5.024;2022-10-13T01:51:47;101888.56;;;11.56;100.00
58955;BME280;45815;52.334;5.024;2022-10-13T01:54:13;101883.31;;;11.56;100.00
58955;BME280;45815;52.334;5.024;2022-10-13T01:56:39;101865.03;;;11.59;100.00
58955;BME280;45815;52.334;5.024;2022-10-13T01:59:08;101857.28;;;11.64;100.00
58955;BME280;45815;52.334;5.024;2022-10-13T02:01:52;101860.81;;;11.66;100.00
58955;BME280;45815;52.334;5.024;2022-10-13T02:04:55;101855.47;;;11.62;100.00
58955;BME280;45815;52.334;5.024;2022-10-13T02:07:46;101862.53;;;11.64;100.00
58955;BME280;45815;52.334;5.024;2022-10-13T02:10:30;101864.41;;;11.68;100.00
58955;BME280;45815;52.334;5.024;2022-10-13T02:13:01;101868.78;;;11.67;100.00
58955;BME280;45815;52.334;5.024;2022-10-13T02:15:40;101875.69;;;11.64;100.00
58955;BME280;45815;52.334;5.024;2022-10-13T02:18:11;101874.84;;;11.65;100.00
58955;BME280;45815;52.334;5.024;2022-10-13T02:20:39;101872.28;;;11.68;100.00
58955;BME280;45815;52.334;5.024;2022-10-13T02:23:10;101867.97;;;11.70;100.00
58955;BME280;45815;52.334;5.024;2022-10-13T02:25:36;101859.25;;;11.71;100.00
58955;BME280;45815;52.334;5.024;2022-10-13T02:28:03;101845.31;;;11.75;100.00
58955;BME280;45815;52.334;5.024;2022-10-13T02:30:31;101847.97;;;11.75;100.00
58955;BME280;45815;52.334;5.024;2022-10-13T02:32:58;101845.31;;;11.75;100.00
58955;BME280;45815;52.334;5.024;2022-10-13T02:35:24;101827.63;;;11.69;100.00
58955;BME280;45815;52.334;5.024;2022-10-13T02:37:50;101817.88;;;11.65;100.00
58955;BME280;45815;52.334;5.024;2022-10-13T02:40:15;101819.56;;;11.63;100.00
58955;BME280;45815;52.334;5.024;2022-10-13T02:42:41;101839.13;;;11.73;100.00
58955;BME280;45815;52.334;5.024;2022-10-13T02:45:06;101835.53;;;11.69;100.00
58955;BME280;45815;52.334;5.024;2022-10-13T02:47:32;101825.97;;;11.73;100.00
58955;BME280;45815;52.334;5.024;2022-10-13T02:50:00;101833.84;;;11.71;100.00
58955;BME280;45815;52.334;5.024;2022-10-13T02:52:26;101839.97;;;11.72;100.00
58955;BME280;45815;52.334;5.024;2022-10-13T02:54:51;101827.78;;;11.74;100.00
58955;BME280;45815;52.334;5.024;2022-10-13T02:57:17;101815.28;;;11.67;100.00
58955;BME280;45815;52.334;5.024;2022-10-13T02:59:43;101824.34;;;11.76;100.00
58955;BME280;45815;52.334;5.024;2022-10-13T03:02:09;101813.88;;;11.78;100.00
58955;BME280;45815;52.334;5.024;2022-10-13T03:04:34;101829.53;;;11.75;100.00
58955;BME280;45815;52.334;5.024;2022-10-13T03:07:01;101833.97;;;11.76;100.00
58955;BME280;45815;52.334;5.024;2022-10-13T03:09:27;101827.84;;;11.77;100.00
58955;BME280;45815;52.334;5.024;2022-10-13T03:11:52;101822.53;;;11.74;100.00
58955;BME280;45815;52.334;5.024;2022-10-13T03:14:18;101823.41;;;11.74;100.00
58955;BME280;45815;52.334;5.024;2022-10-13T03:16:43;101815.44;;;11.73;100.00
58955;BME280;45815;52.334;5.024;2022-10-13T03:19:09;101817.25;;;11.74;100.00
58955;BME280;45815;52.334;5.024;2022-10-13T03:21:38;101813.75;;;11.73;100.00
58955;BME280;45815;52.334;5.024;2022-10-13T03:24:04;101812.78;;;11.71;100.00
58955;BME280;45815;52.334;5.024;2022-10-13T03:26:30;101807.56;;;11.73;100.00
58955;BME280;45815;52.334;5.024;2022-10-13T03:28:56;101805.78;;;11.72;100.00
58955;BME280;45815;52.334;5.024;2022-10-13T03:34:43;101807.53;;;11.71;100.00
58955;BME280;45815;52.334;5.024;2022-10-13T03:37:08;101804.16;;;11.75;100.00
58955;BME280;45815;52.334;5.024;2022-10-13T03:39:39;101801.41;;;11.71;100.00
58955;BME280;45815;52.334;5.024;2022-10-13T03:42:07;101800.59;;;11.73;100.00
58955;BME280;45815;52.334;5.024;2022-10-13T03:44:32;101805.03;;;11.76;100.00
58955;BME280;45815;52.334;5.024;2022-10-13T03:46:58;101807.69;;;11.77;100.00
58955;BME280;45815;52.334;5.024;2022-10-13T03:49:23;101798.09;;;11.78;100.00
58955;BME280;45815;52.334;5.024;2022-10-13T03:51:49;101799.88;;;11.79;100.00
58955;BME280;45815;52.334;5.024;2022-10-13T03:54:14;101792.91;;;11.81;100.00
58955;BME280;45815;52.334;5.024;2022-10-13T03:56:41;101791.22;;;11.83;100.00
58955;BME280;45815;52.334;5.024;2022-10-13T03:59:10;101784.28;;;11.85;100.00
58955;BME280;45815;52.334;5.024;2022-10-13T04:01:36;101778.81;;;11.79;100.00
58955;BME280;45815;52.334;5.024;2022-10-13T04:04:02;101800.16;;;11.88;100.00
58955;BME280;45815;52.334;5.024;2022-10-13T04:06:27;101793.22;;;11.90;100.00
58955;BME280;45815;52.334;5.024;2022-10-13T04:08:53;101800.16;;;11.88;100.00
58955;BME280;45815;52.334;5.024;2022-10-13T04:11:20;101789.72;;;11.91;100.00
58955;BME280;45815;52.334;5.024;2022-10-13T04:13:49;101782.63;;;11.87;100.00
58955;BME280;45815;52.334;5.024;2022-10-13T04:16:21;101788.03;;;11.93;100.00
58955;BME280;45815;52.334;5.024;2022-10-13T04:18:53;101779.31;;;11.94;100.00
58955;BME280;45815;52.334;5.024;2022-10-13T04:21:20;101781.97;;;11.96;100.00
58955;BME280;45815;52.334;5.024;2022-10-13T04:23:45;101774.13;;;11.97;100.00
58955;BME280;45815;52.334;5.024;2022-10-13T04:26:16;101765.28;;;11.95;100.00
58955;BME280;45815;52.334;5.024;2022-10-13T04:28:43;101771.50;;;11.97;100.00
58955;BME280;45815;52.334;5.024;2022-10-13T04:31:08;101779.47;;;12.00;100.00
58955;BME280;45815;52.334;5.024;2022-10-13T04:33:34;101780.41;;;12.02;100.00
58955;BME280;45815;52.334;5.024;2022-10-13T04:36:03;101784.84;;;12.03;100.00
58955;BME280;45815;52.334;5.024;2022-10-13T04:38:28;101783.09;;;12.06;100.00
58955;BME280;45815;52.334;5.024;2022-10-13T04:40:53;101788.38;;;12.06;100.00
58955;BME280;45815;52.334;5.024;2022-10-13T04:43:19;101791.00;;;12.06;100.00
58955;BME280;45815;52.334;5.024;2022-10-13T04:45:44;101781.34;;;12.04;100.00
58955;BME280;45815;52.334;5.024;2022-10-13T04:48:10;101791.88;;;12.04;100.00
58955;BME280;45815;52.334;5.024;2022-10-13T04:50:35;101774.19;;;12.00;100.00
58955;BME280;45815;52.334;5.024;2022-10-13T04:53:01;101791.06;;;12.07;100.00
58955;BME280;45815;52.334;5.024;2022-10-13T04:55:26;101793.63;;;12.06;100.00
58955;BME280;45815;52.334;5.024;2022-10-13T04:57:51;101793.75;;;12.09;100.00
58955;BME280;45815;52.334;5.024;2022-10-13T05:00:17;101794.63;;;12.09;100.00
58955;BME280;45815;52.334;5.024;2022-10-13T05:02:43;101796.41;;;12.10;100.00
58955;BME280;45815;52.334;5.024;2022-10-13T05:05:08;101783.28;;;12.12;100.00
58955;BME280;45815;52.334;5.024;2022-10-13T05:07:34;101785.03;;;12.11;100.00
58955;BME280;45815;52.334;5.024;2022-10-13T05:09:59;101787.69;;;12.11;100.00
58955;BME280;45815;52.334;5.024;2022-10-13T05:12:25;101783.28;;;12.12;100.00
58955;BME280;45815;52.334;5.024;2022-10-13T05:14:50;101782.53;;;12.16;100.00
58955;BME280;45815;52.334;5.024;2022-10-13T05:17:16;101784.28;;;12.15;100.00
58955;BME280;45815;52.334;5.024;2022-10-13T05:19:41;101778.22;;;12.18;100.00
58955;BME280;45815;52.334;5.024;2022-10-13T05:22:06;101784.31;;;12.17;100.00
58955;BME280;45815;52.334;5.024;2022-10-13T05:24:32;101775.59;;;12.19;100.00
58955;BME280;45815;52.334;5.024;2022-10-13T05:27:12;101772.94;;;12.18;100.00
58955;BME280;45815;52.334;5.024;2022-10-13T05:29:38;101780.03;;;12.20;100.00
58955;BME280;45815;52.334;5.024;2022-10-13T05:32:04;101780.91;;;12.21;100.00
58955;BME280;45815;52.334;5.024;2022-10-13T05:34:30;101779.22;;;12.23;100.00
58955;BME280;45815;52.334;5.024;2022-10-13T05:36:56;101777.34;;;12.19;100.00
58955;BME280;45815;52.334;5.024;2022-10-13T05:39:22;101785.31;;;12.22;100.00
58955;BME280;45815;52.334;5.024;2022-10-13T05:41:47;101787.06;;;12.21;100.00
58955;BME280;45815;52.334;5.024;2022-10-13T05:44:18;101774.78;;;12.20;100.00
58955;BME280;45815;52.334;5.024;2022-10-13T05:46:53;101771.31;;;12.23;100.00
58955;BME280;45815;52.334;5.024;2022-10-13T05:49:19;101767.72;;;12.19;100.00
58955;BME280;45815;52.334;5.024;2022-10-13T05:51:56;101774.97;;;12.28;100.00
58955;BME280;45815;52.334;5.024;2022-10-13T05:54:33;101776.66;;;12.26;100.00
58955;BME280;45815;52.334;5.024;2022-10-13T05:57:03;101780.41;;;12.34;100.00
58955;BME280;45815;52.334;5.024;2022-10-13T05:59:34;101778.66;;;12.35;100.00
58955;BME280;45815;52.334;5.024;2022-10-13T06:02:04;101773.47;;;12.38;100.00
58955;BME280;45815;52.334;5.024;2022-10-13T06:04:41;101762.91;;;12.36;100.00
58955;BME280;45815;52.334;5.024;2022-10-13T06:07:09;101759.47;;;12.39;100.00
58955;BME280;45815;52.334;5.024;2022-10-13T06:09:37;101766.56;;;12.41;100.00
58955;BME280;45815;52.334;5.024;2022-10-13T06:12:07;101771.06;;;12.45;100.00
58955;BME280;45815;52.334;5.024;2022-10-13T06:14:33;101771.97;;;12.48;100.00
58955;BME280;45815;52.334;5.024;2022-10-13T06:17:01;101768.50;;;12.50;100.00
58955;BME280;45815;52.334;5.024;2022-10-13T06:19:26;101769.34;;;12.48;100.00
58955;BME280;45815;52.334;5.024;2022-10-13T06:21:52;101760.66;;;12.52;100.00
58955;BME280;45815;52.334;5.024;2022-10-13T06:24:17;101758.16;;;12.56;100.00
58955;BME280;45815;52.334;5.024;2022-10-13T06:26:42;101761.66;;;12.57;100.00
58955;BME280;45815;52.334;5.024;2022-10-13T06:29:08;101762.59;;;12.57;100.00
58955;BME280;45815;52.334;5.024;2022-10-13T06:31:33;101763.50;;;12.59;100.00
58955;BME280;45815;52.334;5.024;2022-10-13T06:33:59;101753.00;;;12.61;100.00
58955;BME280;45815;52.334;5.024;2022-10-13T06:36:24;101753.94;;;12.63;100.00
58955;BME280;45815;52.334;5.024;2022-10-13T06:38:50;101748.66;;;12.63;100.00
58955;BME280;45815;52.334;5.024;2022-10-13T06:41:18;101755.69;;;12.64;100.00
58955;BME280;45815;52.334;5.024;2022-10-13T06:43:44;101751.47;;;12.69;100.00
58955;BME280;45815;52.334;5.024;2022-10-13T06:46:10;101754.09;;;12.69;100.00
58955;BME280;45815;52.334;5.024;2022-10-13T06:48:36;101746.28;;;12.72;100.00
58955;BME280;45815;52.334;5.024;2022-10-13T06:51:07;101745.41;;;12.73;100.00
58955;BME280;45815;52.334;5.024;2022-10-13T06:53:33;101749.84;;;12.76;100.00
58955;BME280;45815;52.334;5.024;2022-10-13T06:55:59;101759.63;;;12.80;100.00
58955;BME280;45815;52.334;5.024;2022-10-13T06:58:26;101767.50;;;12.78;100.00
58955;BME280;45815;52.334;5.024;2022-10-13T07:00:51;101771.97;;;12.81;100.00
58955;BME280;45815;52.334;5.024;2022-10-13T07:03:17;101770.22;;;12.83;100.00
58955;BME280;45815;52.334;5.024;2022-10-13T07:05:43;101764.06;;;12.82;100.00
58955;BME280;45815;52.334;5.024;2022-10-13T07:08:10;101770.22;;;12.83;100.00
58955;BME280;45815;52.334;5.024;2022-10-13T07:10:39;101764.22;;;12.88;100.00
58955;BME280;45815;52.334;5.024;2022-10-13T07:13:05;101770.50;;;12.94;100.00
58955;BME280;45815;52.334;5.024;2022-10-13T07:15:32;101758.06;;;12.88;100.00
58955;BME280;45815;52.334;5.024;2022-10-13T07:17:58;101763.41;;;12.91;100.00
58955;BME280;45815;52.334;5.024;2022-10-13T07:20:24;101764.28;;;12.92;100.00
58955;BME280;45815;52.334;5.024;2022-10-13T07:22:53;101763.41;;;12.91;100.00
58955;BME280;45815;52.334;5.024;2022-10-13T07:25:19;101760.72;;;12.89;100.00
58955;BME280;45815;52.334;5.024;2022-10-13T07:27:45;101762.53;;;12.91;100.00
58955;BME280;45815;52.334;5.024;2022-10-13T07:30:11;101761.72;;;12.93;100.00
58955;BME280;45815;52.334;5.024;2022-10-13T07:32:37;101752.91;;;12.93;100.00
58955;BME280;45815;52.334;5.024;2022-10-13T07:35:08;101757.16;;;12.87;100.00
58955;BME280;45815;52.334;5.024;2022-10-13T07:37:35;101751.91;;;12.87;100.00
58955;BME280;45815;52.334;5.024;2022-10-13T07:40:01;101759.78;;;12.87;100.00
58955;BME280;45815;52.334;5.024;2022-10-13T07:42:27;101751.06;;;12.88;100.00
58955;BME280;45815;52.334;5.024;2022-10-13T07:44:53;101744.84;;;12.86;100.00
58955;BME280;45815;52.334;5.024;2022-10-13T07:47:19;101735.97;;;12.81;100.00
58955;BME280;45815;52.334;5.024;2022-10-13T07:49:44;101744.78;;;12.83;100.00
58955;BME280;45815;52.334;5.024;2022-10-13T07:52:09;101742.22;;;12.86;100.00
58955;BME280;45815;52.334;5.024;2022-10-13T07:54:35;101741.44;;;12.91;100.00
58955;BME280;45815;52.334;5.024;2022-10-13T07:57:00;101731.97;;;12.99;100.00
58955;BME280;45815;52.334;5.024;2022-10-13T07:59:27;101740.88;;;13.04;100.00
58955;BME280;45815;52.334;5.024;2022-10-13T08:01:52;101741.88;;;13.09;100.00
58955;BME280;45815;52.334;5.024;2022-10-13T08:04:18;101745.44;;;13.11;100.00
58955;BME280;45815;52.334;5.024;2022-10-13T08:06:43;101749.03;;;13.15;100.00
58955;BME280;45815;52.334;5.024;2022-10-13T08:09:09;101743.88;;;13.19;100.00
58955;BME280;45815;52.334;5.024;2022-10-13T08:11:34;101752.81;;;13.26;100.00
58955;BME280;45815;52.334;5.024;2022-10-13T08:14:00;101754.72;;;13.32;100.00
58955;BME280;45815;52.334;5.024;2022-10-13T08:16:27;101761.06;;;13.40;100.00
58955;BME280;45815;52.334;5.024;2022-10-13T08:18:53;101758.53;;;13.44;100.00
58955;BME280;45815;52.334;5.024;2022-10-13T08:21:19;101754.19;;;13.48;100.00
58955;BME280;45815;52.334;5.024;2022-10-13T08:23:47;101764.03;;;13.55;100.00
58955;BME280;45815;52.334;5.024;2022-10-13T08:26:21;101761.31;;;13.52;100.00
58955;BME280;45815;52.334;5.024;2022-10-13T08:28:48;101757.03;;;13.57;100.00
58955;BME280;45815;52.334;5.024;2022-10-13T08:31:14;101765.94;;;13.62;100.00
58955;BME280;45815;52.334;5.024;2022-10-13T08:33:40;101758.94;;;13.64;100.00
58955;BME280;45815;52.334;5.024;2022-10-13T08:36:08;101762.56;;;13.69;100.00
58955;BME280;45815;52.334;5.024;2022-10-13T08:38:34;101755.66;;;13.75;100.00
58955;BME280;45815;52.334;5.024;2022-10-13T08:41:00;101758.41;;;13.79;100.00
58955;BME280;45815;52.334;5.024;2022-10-13T08:43:26;101750.56;;;13.84;100.00
58955;BME280;45815;52.334;5.024;2022-10-13T08:45:57;101750.63;;;13.87;100.00
58955;BME280;45815;52.334;5.024;2022-10-13T08:48:31;101747.19;;;13.91;100.00
58955;BME280;45815;52.334;5.024;2022-10-13T08:51:02;101747.09;;;13.88;100.00
58955;BME280;45815;52.334;5.024;2022-10-13T08:53:37;101753.31;;;13.88;100.00
58955;BME280;45815;52.334;5.024;2022-10-13T08:58:41;101753.41;;;13.94;100.00
58955;BME280;45815;52.334;5.024;2022-10-13T09:01:13;101753.34;;;13.91;100.00
58955;BME280;45815;52.334;5.024;2022-10-13T09:04:42;101749.84;;;13.92;100.00
58955;BME280;45815;52.334;5.024;2022-10-13T09:06:41;101742.84;;;13.94;100.00
58955;BME280;45815;52.334;5.024;2022-10-13T09:09:12;101742.09;;;14.00;100.00
58955;BME280;45815;52.334;5.024;2022-10-13T09:11:41;101739.56;;;14.06;100.00
58955;BME280;45815;52.334;5.024;2022-10-13T09:14:10;101734.31;;;14.08;100.00
58955;BME280;45815;52.334;5.024;2022-10-13T09:16:41;101724.63;;;14.08;100.00
58955;BME280;45815;52.334;5.024;2022-10-13T09:19:19;101734.44;;;14.15;100.00
58955;BME280;45815;52.334;5.024;2022-10-13T09:21:45;101741.53;;;14.18;100.00
58955;BME280;45815;52.334;5.024;2022-10-13T09:24:14;101732.78;;;14.21;100.00
58955;BME280;45815;52.334;5.024;2022-10-13T09:26:40;101728.38;;;14.20;100.00
58955;BME280;45815;52.334;5.024;2022-10-13T09:29:13;101734.53;;;14.20;100.00
58955;BME280;45815;52.334;5.024;2022-10-13T09:31:39;101752.22;;;14.24;100.00
58955;BME280;45815;52.334;5.024;2022-10-13T09:36:37;101755.78;;;14.26;100.00
58955;BME280;45815;52.334;5.024;2022-10-13T09:39:13;101758.34;;;14.23;100.00
58955;BME280;45815;52.334;5.024;2022-10-13T09:41:41;101758.44;;;14.26;100.00
58955;BME280;45815;52.334;5.024;2022-10-13T09:44:30;101745.13;;;14.22;100.00
58955;BME280;45815;52.334;5.024;2022-10-13T09:46:58;101751.38;;;14.27;100.00
58955;BME280;45815;52.334;5.024;2022-10-13T09:49:46;101751.38;;;14.27;100.00
58955;BME280;45815;52.334;5.024;2022-10-13T09:52:17;101743.41;;;14.24;100.00
58955;BME280;45815;52.334;5.024;2022-10-13T09:54:50;101747.81;;;14.25;100.00
58955;BME280;45815;52.334;5.024;2022-10-13T09:57:41;101750.28;;;14.15;100.00
58955;BME280;45815;52.334;5.024;2022-10-13T10:00:19;101748.63;;;14.21;100.00
58955;BME280;45815;52.334;5.024;2022-10-13T10:03:19;101752.00;;;14.12;100.00
58955;BME280;45815;52.334;5.024;2022-10-13T10:05:55;101751.16;;;14.14;100.00
58955;BME280;45815;52.334;5.024;2022-10-13T10:08:28;101740.59;;;14.14;100.00
58955;BME280;45815;52.334;5.024;2022-10-13T10:11:03;101753.78;;;14.13;100.00
58955;BME280;45815;52.334;5.024;2022-10-13T10:13:30;101749.41;;;14.15;100.00
58955;BME280;45815;52.334;5.024;2022-10-13T10:16:06;101747.66;;;14.15;100.00
58955;BME280;45815;52.334;5.024;2022-10-13T10:18:42;101751.16;;;14.14;100.00
58955;BME280;45815;52.334;5.024;2022-10-13T10:21:22;101746.72;;;14.13;100.00
58955;BME280;45815;52.334;5.024;2022-10-13T10:23:58;101744.16;;;14.17;100.00
58955;BME280;45815;52.334;5.024;2022-10-13T10:29:21;101732.78;;;14.19;100.00
58955;BME280;45815;52.334;5.024;2022-10-13T10:37:48;101721.38;;;14.22;100.00
58955;BME280;45815;52.334;5.024;2022-10-13T10:45:40;101731.16;;;14.27;100.00
58955;BME280;45815;52.334;5.024;2022-10-13T10:48:17;101719.56;;;14.21;100.00
58955;BME280;45815;52.334;5.024;2022-10-13T10:50:44;101726.75;;;14.28;100.00
58955;BME280;45815;52.334;5.024;2022-10-13T10:55:51;101718.03;;;14.32;100.00
58955;BME280;45815;52.334;5.024;2022-10-13T10:58:45;101718.06;;;14.33;100.00
58955;BME280;45815;52.334;5.024;2022-10-13T11:01:21;101718.22;;;14.44;100.00
58955;BME280;45815;52.334;5.024;2022-10-13T11:04:30;101723.63;;;14.50;100.00
58955;BME280;45815;52.334;5.024;2022-10-13T11:06:56;101708.00;;;14.63;100.00
58955;BME280;45815;52.334;5.024;2022-10-13T11:14:45;101716.16;;;14.75;100.00
58955;BME280;45815;52.334;5.024;2022-10-13T11:17:17;101707.16;;;14.65;100.00
58955;BME280;45815;52.334;5.024;2022-10-13T11:19:45;101699.13;;;14.57;100.00
58955;BME280;45815;52.334;5.024;2022-10-13T11:22:13;101685.66;;;14.42;100.00
58955;BME280;45815;52.334;5.024;2022-10-13T11:24:44;101684.50;;;14.28;100.00
58955;BME280;45815;52.334;5.024;2022-10-13T11:40:55;101663.41;;;14.29;100.00
58955;BME280;45815;52.334;5.024;2022-10-13T11:48:53;101650.66;;;14.54;100.00
58955;BME280;45815;52.334;5.024;2022-10-13T11:52:05;101661.41;;;14.68;100.00
58955;BME280;45815;52.334;5.024;2022-10-13T11:54:49;101660.59;;;14.72;100.00
58955;BME280;45815;52.334;5.024;2022-10-13T11:57:24;101661.69;;;14.85;100.00
58955;BME280;45815;52.334;5.024;2022-10-13T11:59:52;101655.56;;;14.90;100.00
58955;BME280;45815;52.334;5.024;2022-10-13T12:02:26;101653.84;;;14.92;100.00
58955;BME280;45815;52.334;5.024;2022-10-13T12:05:24;101651.94;;;14.84;100.00
58955;BME280;45815;52.334;5.024;2022-10-13T12:07:53;101647.63;;;14.89;100.00
58955;BME280;45815;52.334;5.024;2022-10-13T12:10:23;101655.53;;;14.87;100.00
58955;BME280;45815;52.334;5.024;2022-10-13T12:12:52;101652.88;;;14.86;100.00
58955;BME280;45815;52.334;5.024;2022-10-13T12:15:39;101644.88;;;14.81;100.00
58955;BME280;45815;52.334;5.024;2022-10-13T12:18:24;101655.44;;;14.81;100.00
58955;BME280;45815;52.334;5.024;2022-10-13T12:20:58;101649.34;;;14.85;100.00
58955;BME280;45815;52.334;5.024;2022-10-13T12:23:25;101630.75;;;14.79;100.00
58955;BME280;45815;52.334;5.024;2022-10-13T12:25:52;101636.97;;;14.83;100.00
58955;BME280;45815;52.334;5.024;2022-10-13T12:28:22;101630.75;;;14.79;100.00
58955;BME280;45815;52.334;5.024;2022-10-13T12:30:58;101626.31;;;14.75;100.00
58955;BME280;45815;52.334;5.024;2022-10-13T12:33:31;101624.53;;;14.77;100.00
58955;BME280;45815;52.334;5.024;2022-10-13T12:36:19;101628.81;;;14.67;100.00
58955;BME280;45815;52.334;5.024;2022-10-13T12:38:50;101627.13;;;14.71;100.00
58955;BME280;45815;52.334;5.024;2022-10-13T12:41:19;101629.75;;;14.71;100.00
58955;BME280;45815;52.334;5.024;2022-10-13T12:43:47;101630.56;;;14.67;100.00
58955;BME280;45815;52.334;5.024;2022-10-13T12:46:40;101626.97;;;14.63;100.00
58955;BME280;45815;52.334;5.024;2022-10-13T12:49:20;101627.81;;;14.61;100.00
58955;BME280;45815;52.334;5.024;2022-10-13T12:51:48;101629.66;;;14.65;100.00
58955;BME280;45815;52.334;5.024;2022-10-13T12:54:20;101634.00;;;14.60;100.00
58955;BME280;45815;52.334;5.024;2022-10-13T12:56:47;101636.63;;;14.60;100.00
58955;BME280;45815;52.334;5.024;2022-10-13T12:59:15;101636.50;;;14.52;100.00
58955;BME280;45815;52.334;5.024;2022-10-13T13:01:43;101636.44;;;14.50;100.00
58955;BME280;45815;52.334;5.024;2022-10-13T13:04:31;101623.88;;;14.34;100.00
58955;BME280;45815;52.334;5.024;2022-10-13T13:07:04;101615.97;;;14.37;100.00
58955;BME280;45815;52.334;5.024;2022-10-13T13:09:34;101617.63;;;14.29;100.00
58955;BME280;45815;52.334;5.024;2022-10-13T13:14:40;101631.75;;;14.31;100.00
58955;BME280;45815;52.334;5.024;2022-10-13T13:19:42;101636.97;;;14.28;100.00
58955;BME280;45815;52.334;5.024;2022-10-13T13:22:08;101636.03;;;14.24;100.00
58955;BME280;45815;52.334;5.024;2022-10-13T13:24:34;101634.16;;;14.19;100.00
58955;BME280;45815;52.334;5.024;2022-10-13T13:27:15;101629.56;;;14.07;100.00
58955;BME280;45815;52.334;5.024;2022-10-13T13:29:40;101627.84;;;14.07;100.00
58955;BME280;45815;52.334;5.024;2022-10-13T13:32:12;101612.72;;;13.99;100.00
58955;BME280;45815;52.334;5.024;2022-10-13T13:34:38;101622.56;;;14.07;100.00
58955;BME280;45815;52.334;5.024;2022-10-13T13:37:03;101613.75;;;14.08;100.00
58955;BME280;45815;52.334;5.024;2022-10-13T13:39:28;101612.88;;;14.08;100.00
58955;BME280;45815;52.334;5.024;2022-10-13T13:41:54;101605.81;;;14.07;100.00
58955;BME280;45815;52.334;5.024;2022-10-13T13:44:19;101610.19;;;14.05;100.00
58955;BME280;45815;52.334;5.024;2022-10-13T13:46:46;101610.19;;;14.06;100.00
58955;BME280;45815;52.334;5.024;2022-10-13T13:49:12;101611.94;;;14.04;100.00
58955;BME280;45815;52.334;5.024;2022-10-13T13:51:37;101615.44;;;14.03;100.00
58955;BME280;45815;52.334;5.024;2022-10-13T13:54:03;101612.72;;;13.99;100.00
58955;BME280;45815;52.334;5.024;2022-10-13T13:56:29;101612.75;;;14.02;100.00
58955;BME280;45815;52.334;5.024;2022-10-13T13:58:54;101610.16;;;14.03;100.00
58955;BME280;45815;52.334;5.024;2022-10-13T14:01:19;101615.41;;;14.02;100.00
58955;BME280;45815;52.334;5.024;2022-10-13T14:03:45;101613.59;;;13.99;100.00
58955;BME280;45815;52.334;5.024;2022-10-13T14:06:20;101610.91;;;13.96;100.00
58955;BME280;45815;52.334;5.024;2022-10-13T14:08:47;101609.19;;;13.98;100.00
58955;BME280;45815;52.334;5.024;2022-10-13T14:11:12;101610.91;;;13.96;100.00
58955;BME280;45815;52.334;5.024;2022-10-13T14:13:37;101610.00;;;13.94;100.00